CheckWX is a tool to help pilots better visualize weather data.  It is not intended as a substitute for an official pre-flight weather briefing.

20:26:59 UTC

KMSN METAR
Dane County Regional-Truax Field Airport
Madison, Wisconsin, USA
Current

34 mins ago

KMSN 201953Z 01006KT 10SM CLR 18/M06 A2984 RMK AO2 SLP107 T01831056
Observed
Apr-20 @ 19:53 UTC
Wind
  • 010° at 6 KTS
Visibility
10 SM
Flight Rules
VFR
Cloud Levels
  • Clear skies
Temperature
18°C / 64°F
Dewpoint
-6°C / 21°F
Humidity
19%
Altimeter
29.84" Hg
Pressure
1010.52 hPa
Previous

2 hours ago

KMSN 201853Z 03008KT 10SM CLR 17/M06 A2986 RMK AO2 SLP115 T01721056
Observed
Apr-20 @ 18:53 UTC
Wind
  • 030° at 8 KTS
Visibility
10 SM
Flight Rules
VFR
Cloud Levels
  • Clear skies
Temperature
17°C / 63°F
Dewpoint
-6°C / 21°F
Humidity
20%
Altimeter
29.86" Hg
Pressure
1011.22 hPa
Previous

3 hours ago

KMSN 201753Z 03007KT 10SM CLR 16/M06 A2988 RMK AO2 SLP120 T01611056 10161 20000 58013
Observed
Apr-20 @ 17:53 UTC
Wind
  • 030° at 7 KTS
Visibility
10 SM
Flight Rules
VFR
Cloud Levels
  • Clear skies
Temperature
16°C / 61°F
Dewpoint
-6°C / 21°F
Humidity
22%
Altimeter
29.88" Hg
Pressure
1011.82 hPa